Time;durP1;ratioP1;P1;durP2;ratioP2;P2;SDS_P1;SDS_P2;PMS_P1;PMS_P2;Temp;Humidity;BMP_temperature;BMP_pressure;BME280_temperature;BME280_humidity;BME280_pressure;Samples;Min_cycle;Max_cycle;Signal;HPM_P1;HPM_P2
2022/04/03 00:01:53;;;;;;;22.07;15.30;;;;;;;-0.56;100.00;151227.28;5060150;28;20470;-78
2022/04/03 00:04:30;;;;;;;21.73;15.27;;;;;;;-0.57;100.00;151226.00;5039204;28;20443;-78
2022/04/03 00:07:07;;;;;;;19.40;12.40;;;;;;;-0.55;100.00;151229.81;5045849;28;20955;-78
2022/04/03 00:09:43;;;;;;;22.63;15.30;;;;;;;-0.64;100.00;151209.28;5053527;28;20447;-78
2022/04/03 00:12:19;;;;;;;20.90;14.03;;;;;;;-0.62;100.00;151213.19;5042461;28;20468;-77
2022/04/03 00:14:54;;;;;;;23.93;13.80;;;;;;;-0.58;100.00;151222.16;5042754;28;20798;-78
2022/04/03 00:17:30;;;;;;;21.20;13.80;;;;;;;-0.60;100.00;151218.28;5042430;28;20413;-78
2022/04/03 00:20:06;;;;;;;24.23;16.63;;;;;;;-0.63;100.00;151210.59;5042227;28;20808;-78
2022/04/03 00:22:48;;;;;;;21.30;14.97;;;;;;;-0.63;100.00;151210.59;5056467;28;20895;-78
2022/04/03 00:25:23;;;;;;;21.83;13.30;;;;;;;-0.60;100.00;151218.28;5057918;28;20466;-77
2022/04/03 00:27:59;;;;;;;20.47;13.87;;;;;;;-0.63;100.00;151210.59;5042281;28;20456;-78
2022/04/03 00:30:35;;;;;;;20.20;13.03;;;;;;;-0.66;100.00;151202.88;5042473;28;20441;-77
2022/04/03 00:33:11;;;;;;;23.03;15.93;;;;;;;-0.65;100.00;151205.47;5058994;28;20439;-77
2022/04/03 00:35:46;;;;;;;22.60;15.13;;;;;;;-0.68;100.00;151197.78;5042530;28;20463;-78
2022/04/03 00:38:23;;;;;;;20.50;14.17;;;;;;;-0.67;100.00;151200.34;5057742;28;20433;-78
2022/04/03 00:41:00;;;;;;;20.17;14.50;;;;;;;-0.66;100.00;151202.88;5057612;28;20443;-78
2022/04/03 00:43:35;;;;;;;21.40;15.00;;;;;;;-0.67;100.00;151200.34;5042094;28;20461;-78
2022/04/03 00:46:11;;;;;;;23.67;15.17;;;;;;;-0.68;100.00;151199.06;5057567;28;20445;-78
2022/04/03 00:48:48;;;;;;;22.03;14.93;;;;;;;-0.72;100.00;151187.53;5041934;28;20446;-78
2022/04/03 00:51:25;;;;;;;23.20;14.67;;;;;;;-0.74;100.00;151182.38;5043830;28;20445;-78
2022/04/03 00:54:01;;;;;;;22.07;15.23;;;;;;;-0.73;100.00;151184.94;5057864;28;20441;-78
2022/04/03 00:56:37;;;;;;;25.30;15.40;;;;;;;-0.77;100.00;151174.72;5032984;28;20449;-78
2022/04/03 00:59:12;;;;;;;21.67;14.83;;;;;;;-0.79;100.00;151169.56;5037162;28;20867;-78
2022/04/03 01:01:48;;;;;;;22.10;15.20;;;;;;;-0.78;100.00;151172.13;5037229;28;20513;-77
2022/04/03 01:04:24;;;;;;;22.07;14.90;;;;;;;-0.79;100.00;151170.84;5037308;28;20445;-77
2022/04/03 01:06:59;;;;;;;18.37;13.37;;;;;;;-0.76;100.00;151178.53;5038032;28;20441;-78
2022/04/03 01:09:37;;;;;;;19.00;13.73;;;;;;;-0.70;100.00;151193.94;5069453;28;20453;-78
2022/04/03 01:12:13;;;;;;;23.80;15.13;;;;;;;-0.72;100.00;151187.53;5057157;28;20812;-78
2022/04/03 01:14:48;;;;;;;24.00;15.20;;;;;;;-0.77;100.00;151174.72;5056839;28;20445;-78
2022/04/03 01:17:24;;;;;;;23.27;15.10;;;;;;;-0.76;100.00;151177.25;5056378;28;20437;-77
2022/04/03 01:20:00;;;;;;;24.80;16.90;;;;;;;-0.69;100.00;151196.47;5022309;28;20458;-78
2022/04/03 01:22:36;;;;;;;24.37;16.20;;;;;;;-0.72;100.00;151187.53;5036941;28;20466;-78
2022/04/03 01:25:14;;;;;;;24.17;15.10;;;;;;;-0.75;100.00;151181.13;5038083;28;20435;-78
2022/04/03 01:27:49;;;;;;;22.37;15.20;;;;;;;-0.76;100.00;151178.53;5052804;28;20966;-78
2022/04/03 01:30:25;;;;;;;22.33;15.53;;;;;;;-0.73;100.00;151186.25;5054549;28;20438;-78
2022/04/03 01:33:01;;;;;;;20.90;14.60;;;;;;;-0.73;100.00;151186.25;5060173;28;20453;-78
2022/04/03 01:35:36;;;;;;;20.03;13.90;;;;;;;-0.72;100.00;151187.53;5057188;28;20441;-79
2022/04/03 01:38:12;;;;;;;20.57;12.83;;;;;;;-0.71;100.00;151190.06;5055470;28;20951;-79
2022/04/03 01:40:49;;;;;;;25.83;14.37;;;;;;;-0.69;100.00;151195.25;5041310;28;20438;-79
2022/04/03 01:43:24;;;;;;;22.47;14.70;;;;;;;-0.68;100.00;151199.06;5040860;28;20985;-79
2022/04/03 01:46:00;;;;;;;20.87;12.90;;;;;;;-0.68;100.00;151197.78;5041117;28;20445;-79
2022/04/03 01:48:35;;;;;;;20.60;14.40;;;;;;;-0.68;100.00;151197.78;5024227;28;20454;-79
2022/04/03 01:51:12;;;;;;;23.70;14.60;;;;;;;-0.66;100.00;151202.88;5055523;28;20556;-78
2022/04/03 01:53:47;;;;;;;19.33;13.80;;;;;;;-0.64;100.00;151209.28;5038743;28;20537;-78
2022/04/03 01:56:24;;;;;;;19.93;13.97;;;;;;;-0.64;100.00;151208.06;5020938;28;20823;-78
2022/04/03 01:58:59;;;;;;;21.30;14.60;;;;;;;-0.65;100.00;151205.47;5042155;28;20453;-78
2022/04/03 02:01:35;;;;;;;18.23;14.17;;;;;;;-0.65;100.00;151205.47;5053385;28;20477;-78
2022/04/03 02:04:12;;;;;;;21.40;14.03;;;;;;;-0.64;100.00;151208.06;5036862;28;20435;-79
2022/04/03 02:06:48;;;;;;;20.23;13.97;;;;;;;-0.61;100.00;151215.75;5026677;28;20533;-79
2022/04/03 02:09:23;;;;;;;17.73;12.50;;;;;;;-0.64;100.00;151209.28;5050793;28;20482;-79
2022/04/03 02:12:00;;;;;;;18.57;12.80;;;;;;;-0.63;100.00;151210.59;5036093;28;20545;-78
2022/04/03 02:14:36;;;;;;;17.57;12.67;;;;;;;-0.63;100.00;151211.88;5035512;28;20466;-78
2022/04/03 02:20:00;;;;;;;18.60;11.93;;;;;;;-0.64;100.00;151208.06;5027454;28;20478;-79
2022/04/03 02:22:36;;;;;;;25.83;13.90;;;;;;;-0.65;100.00;151206.75;5025600;28;20465;-79
2022/04/03 02:25:13;;;;;;;19.90;12.80;;;;;;;-0.67;100.00;151200.34;5035583;28;20434;-79
2022/04/03 02:27:50;;;;;;;17.20;12.43;;;;;;;-0.67;100.00;151200.34;5052485;28;20934;-79
2022/04/03 02:30:26;;;;;;;22.30;13.77;;;;;;;-0.64;100.00;151208.06;5052185;28;20447;-78
2022/04/03 02:33:02;;;;;;;21.80;12.27;;;;;;;-0.64;100.00;151208.06;5035591;28;20426;-78
2022/04/03 02:35:37;;;;;;;16.80;12.00;;;;;;;-0.65;100.00;151206.75;5051308;28;20446;-79
2022/04/03 02:38:15;;;;;;;18.67;13.50;;;;;;;-0.65;100.00;151205.47;5053493;28;20442;-79
2022/04/03 02:40:51;;;;;;;17.47;13.00;;;;;;;-0.66;100.00;151202.88;5035650;28;20443;-79
2022/04/03 02:43:28;;;;;;;16.77;13.10;;;;;;;-0.64;100.00;151209.28;5035834;28;20489;-78
2022/04/03 02:46:03;;;;;;;18.50;12.20;;;;;;;-0.61;100.00;151215.75;5045544;28;20555;-78
2022/04/03 02:48:39;;;;;;;22.83;14.00;;;;;;;-0.65;100.00;151205.47;5035546;28;20445;-79
2022/04/03 02:51:15;;;;;;;18.70;13.40;;;;;;;-0.62;100.00;151213.19;5020070;28;20435;-79
2022/04/03 02:53:50;;;;;;;19.37;12.70;;;;;;;-0.65;100.00;151206.75;5035255;28;20449;-78
2022/04/03 02:56:26;;;;;;;23.83;14.40;;;;;;;-0.63;100.00;151210.59;5049403;28;20936;-79
2022/04/03 02:59:03;;;;;;;19.30;12.97;;;;;;;-0.64;100.00;151209.28;5056171;28;20437;-78
2022/04/03 03:01:38;;;;;;;15.27;12.37;;;;;;;-0.64;100.00;151208.06;5073824;28;20422;-79
2022/04/03 03:04:14;;;;;;;17.63;13.00;;;;;;;-0.54;100.00;151232.41;5048397;28;20910;-79
2022/04/03 03:06:50;;;;;;;19.03;12.80;;;;;;;-0.62;100.00;151213.19;5041898;28;20430;-79
2022/04/03 03:09:25;;;;;;;20.40;12.73;;;;;;;-0.59;100.00;151220.88;5035829;28;20452;-78
2022/04/03 03:12:01;;;;;;;17.80;12.77;;;;;;;-0.63;100.00;151211.88;5038529;28;20904;-79
2022/04/03 03:14:38;;;;;;;18.60;12.50;;;;;;;-0.66;100.00;151204.19;5054543;28;20441;-78
2022/04/03 03:17:14;;;;;;;20.00;13.53;;;;;;;-0.62;100.00;151214.47;5054782;28;20477;-78
2022/04/03 03:19:49;;;;;;;15.73;12.23;;;;;;;-0.61;100.00;151215.75;5055023;28;20545;-78
2022/04/03 03:22:25;;;;;;;17.27;12.10;;;;;;;-0.63;100.00;151210.59;5054685;28;20465;-78
2022/04/03 03:25:01;;;;;;;17.53;12.23;;;;;;;-0.64;100.00;151209.28;5038865;28;20532;-78
2022/04/03 03:27:38;;;;;;;17.47;12.27;;;;;;;-0.65;100.00;151206.75;5051645;28;20439;-78
2022/04/03 03:30:15;;;;;;;14.70;11.30;;;;;;;-0.61;100.00;151217.00;5034550;28;20439;-78
2022/04/03 03:32:51;;;;;;;16.70;11.70;;;;;;;-0.61;100.00;151215.75;5034796;28;20471;-79
2022/04/03 03:35:26;;;;;;;18.70;12.80;;;;;;;-0.65;100.00;151205.47;5034621;28;20443;-79
2022/04/03 03:38:03;;;;;;;20.30;12.50;;;;;;;-0.62;100.00;151214.47;5034779;28;20431;-79
2022/04/03 03:40:39;;;;;;;17.53;12.80;;;;;;;-0.63;100.00;151210.59;5034558;28;20447;-79
2022/04/03 03:43:15;;;;;;;20.33;11.53;;;;;;;-0.61;100.00;151215.75;5034479;28;20997;-78
2022/04/03 03:45:52;;;;;;;16.70;11.80;;;;;;;-0.62;100.00;151213.19;5019976;28;20453;-78
2022/04/03 03:48:28;;;;;;;17.30;12.47;;;;;;;-0.64;100.00;151209.28;5051277;28;20435;-78
2022/04/03 03:51:04;;;;;;;17.93;12.37;;;;;;;-0.66;100.00;151202.88;5066994;28;20448;-79
2022/04/03 03:53:39;;;;;;;18.63;13.03;;;;;;;-0.65;100.00;151205.47;5074659;28;20421;-79
2022/04/03 03:56:15;;;;;;;18.70;12.40;;;;;;;-0.64;100.00;151208.06;5074522;28;20471;-79
2022/04/03 03:58:51;;;;;;;18.10;11.90;;;;;;;-0.64;100.00;151208.06;5084895;28;20794;-78
2022/04/03 04:01:28;;;;;;;16.17;11.97;;;;;;;-0.63;100.00;151211.88;5054434;28;20532;-78
2022/04/03 04:04:04;;;;;;;13.70;11.50;;;;;;;-0.66;100.00;151204.19;5041131;28;20462;-78
2022/04/03 04:06:39;;;;;;;18.73;12.33;;;;;;;-0.62;100.00;151213.19;5056010;28;20438;-78
2022/04/03 04:09:15;;;;;;;17.30;12.00;;;;;;;-0.62;100.00;151213.19;5066752;28;20454;-78
2022/04/03 04:11:51;;;;;;;19.43;12.57;;;;;;;-0.65;100.00;151205.47;5037304;28;20810;-78
2022/04/03 04:14:26;;;;;;;18.93;12.20;;;;;;;-0.67;100.00;151201.66;5038892;28;20437;-78
2022/04/03 04:17:04;;;;;;;18.57;12.47;;;;;;;-0.62;100.00;151213.19;5054338;28;20798;-78
2022/04/03 04:19:39;;;;;;;15.03;11.40;;;;;;;-0.67;100.00;151200.34;5037149;28;20453;-79
2022/04/03 04:22:16;;;;;;;15.20;11.20;;;;;;;-0.66;100.00;151204.19;5036056;28;20462;-78
2022/04/03 04:24:52;;;;;;;17.50;12.47;;;;;;;-0.62;100.00;151213.19;5034055;28;20438;-78
2022/04/03 04:27:27;;;;;;;16.33;12.47;;;;;;;-0.68;100.00;151197.78;5018884;28;20411;-78
2022/04/03 04:30:03;;;;;;;18.80;12.40;;;;;;;-0.67;100.00;151200.34;5034386;28;20446;-79
2022/04/03 04:32:41;;;;;;;14.47;10.83;;;;;;;-0.70;100.00;151192.66;5034012;28;20435;-78
2022/04/03 04:35:16;;;;;;;15.63;12.20;;;;;;;-0.67;100.00;151201.66;5035580;28;20435;-78
2022/04/03 04:37:52;;;;;;;16.63;12.30;;;;;;;-0.67;100.00;151200.34;5047177;28;20776;-78
2022/04/03 04:40:27;;;;;;;16.73;12.00;;;;;;;-0.70;100.00;151193.94;5038845;28;20475;-78
2022/04/03 04:43:03;;;;;;;14.43;10.90;;;;;;;-0.68;100.00;151197.78;5056228;28;20458;-79
2022/04/03 04:45:39;;;;;;;19.37;12.30;;;;;;;-0.71;100.00;151191.34;5057808;28;20993;-78
2022/04/03 04:48:16;;;;;;;15.53;10.63;;;;;;;-0.71;100.00;151190.06;5057341;28;20425;-79
2022/04/03 04:50:52;;;;;;;15.47;10.60;;;;;;;-0.70;100.00;151192.66;5069185;28;20819;-78
2022/04/03 04:53:28;;;;;;;17.63;11.63;;;;;;;-0.67;100.00;151201.66;5058171;28;20434;-78
2022/04/03 04:56:04;;;;;;;16.73;12.43;;;;;;;-0.73;100.00;151184.94;5022391;28;20537;-78
2022/04/03 04:58:40;;;;;;;20.27;12.27;;;;;;;-0.72;100.00;151187.53;5057165;28;20849;-78
2022/04/03 05:01:16;;;;;;;15.73;11.80;;;;;;;-0.69;100.00;151195.25;5040287;28;20536;-78
2022/04/03 05:03:53;;;;;;;15.10;11.03;;;;;;;-0.72;100.00;151187.53;5063289;28;20540;-78
2022/04/03 05:06:29;;;;;;;14.73;10.73;;;;;;;-0.71;100.00;151190.06;5038542;28;20442;-78
2022/04/03 05:09:05;;;;;;;17.20;11.57;;;;;;;-0.70;100.00;151193.94;5037979;28;20434;-78
2022/04/03 05:11:41;;;;;;;14.97;10.53;;;;;;;-0.69;100.00;151195.25;5017305;28;20479;-78
2022/04/03 05:14:17;;;;;;;14.67;10.87;;;;;;;-0.69;100.00;151195.25;5018621;28;20748;-79
2022/04/03 05:16:52;;;;;;;16.43;10.77;;;;;;;-0.73;100.00;151184.94;5016837;28;20447;-79
2022/04/03 05:19:29;;;;;;;15.13;10.70;;;;;;;-0.74;100.00;151182.38;5017307;28;20459;-78
2022/04/03 05:22:05;;;;;;;16.30;10.90;;;;;;;-0.76;100.00;151178.53;5016875;28;20447;-79
2022/04/03 05:24:41;;;;;;;15.30;10.80;;;;;;;-0.73;100.00;151184.94;5016638;28;20472;-79
2022/04/03 05:27:16;;;;;;;17.40;11.23;;;;;;;-0.75;100.00;151181.13;5001411;28;20546;-79
2022/04/03 05:29:54;;;;;;;19.00;11.33;;;;;;;-0.73;100.00;151184.94;5017145;28;20960;-78
2022/04/03 05:32:31;;;;;;;16.17;11.93;;;;;;;-0.73;100.00;151186.25;5010670;28;20541;-78
2022/04/03 05:35:09;;;;;;;16.80;10.60;;;;;;;-0.73;100.00;151186.25;5021302;28;20449;-79
2022/04/03 05:37:45;;;;;;;15.90;11.17;;;;;;;-0.72;100.00;151188.81;5036273;28;20934;-78
2022/04/03 05:40:21;;;;;;;15.37;11.27;;;;;;;-0.73;100.00;151186.25;5015174;28;20554;-78
2022/04/03 05:42:58;;;;;;;17.23;11.43;;;;;;;-0.73;100.00;151184.94;5016227;28;20490;-78
2022/04/03 05:45:33;;;;;;;17.17;10.43;;;;;;;-0.70;100.00;151192.66;5029435;28;20443;-79
2022/04/03 05:48:09;;;;;;;17.27;11.07;;;;;;;-0.75;100.00;151179.84;5037095;28;20492;-79
2022/04/03 05:50:46;;;;;;;15.73;11.10;;;;;;;-0.72;100.00;151187.53;5016726;28;20863;-78
2022/04/03 05:53:22;;;;;;;14.80;10.00;;;;;;;-0.72;100.00;151188.81;5000487;28;20443;-78
2022/04/03 05:55:58;;;;;;;14.83;11.13;;;;;;;-0.74;100.00;151182.38;5025481;28;20438;-78
2022/04/03 05:58:34;;;;;;;15.77;11.50;;;;;;;-0.73;100.00;151186.25;5036029;28;20953;-79
2022/04/03 06:01:09;;;;;;;17.47;10.90;;;;;;;-0.70;100.00;151193.94;5016722;28;20460;-78
2022/04/03 06:03:45;;;;;;;13.63;9.90;;;;;;;-0.69;100.00;151195.25;5019622;28;20481;-78
2022/04/03 06:06:22;;;;;;;13.63;10.00;;;;;;;-0.66;100.00;151204.19;5032692;28;20864;-78
2022/04/03 06:08:58;;;;;;;15.57;11.33;;;;;;;-0.68;100.00;151197.78;5032699;28;20443;-78
2022/04/03 06:11:35;;;;;;;14.10;10.17;;;;;;;-0.71;100.00;151190.06;5024987;28;20480;-78
2022/04/03 06:14:11;;;;;;;12.07;9.80;;;;;;;-0.62;100.00;151213.19;5055986;28;20437;-79
2022/04/03 06:16:46;;;;;;;33.37;17.07;;;;;;;-0.63;100.00;151211.88;5056030;28;20433;-78
2022/04/03 06:19:22;;;;;;;14.00;9.77;;;;;;;-0.73;100.00;151186.25;5044459;28;20794;-79
2022/04/03 06:22:00;;;;;;;15.90;12.67;;;;;;;-0.67;100.00;151200.34;5034969;28;20435;-78
2022/04/03 06:24:36;;;;;;;15.77;10.57;;;;;;;-0.64;100.00;151208.06;5038000;28;20568;-78
2022/04/03 06:27:12;;;;;;;15.40;11.80;;;;;;;-0.63;100.00;151210.59;5040482;28;20433;-78
2022/04/03 06:29:47;;;;;;;14.33;10.00;;;;;;;-0.57;100.00;151224.69;5055565;28;20438;-79
2022/04/03 06:32:23;;;;;;;11.53;8.37;;;;;;;-0.52;100.00;151238.81;5054868;28;20891;-79
2022/04/03 06:34:59;;;;;;;17.47;12.07;;;;;;;-0.45;100.00;151256.75;5073083;28;20429;-78
2022/04/03 06:37:36;;;;;;;14.93;10.67;;;;;;;-0.40;100.00;151268.34;5054448;28;20453;-79
2022/04/03 06:40:13;;;;;;;12.93;8.97;;;;;;;-0.38;100.00;151274.75;5055029;28;20449;-79
2022/04/03 06:42:49;;;;;;;10.10;7.77;;;;;;;-0.35;100.00;151281.16;5039477;28;20767;-79
2022/04/03 06:45:25;;;;;;;11.10;8.03;;;;;;;-0.29;100.00;151296.56;5054457;28;20456;-80
2022/04/03 06:48:01;;;;;;;12.50;8.80;;;;;;;-0.26;100.00;151305.50;5040084;28;20524;-78
2022/04/03 06:50:37;;;;;;;22.43;15.50;;;;;;;-0.19;100.00;151323.50;5039521;28;21000;-80
2022/04/03 06:53:14;;;;;;;12.60;9.10;;;;;;;-0.26;100.00;151305.50;5054719;28;20457;-80
2022/04/03 06:55:49;;;;;;;11.97;8.57;;;;;;;-0.11;100.00;151342.75;5054672;28;20481;-81
2022/04/03 06:58:25;;;;;;;11.43;9.50;;;;;;;0.03;100.00;151378.63;5039769;28;20438;-80
2022/04/03 07:01:02;;;;;;;17.60;9.70;;;;;;;0.23;100.00;151428.72;5039332;28;20452;-81
2022/04/03 07:03:38;;;;;;;12.43;8.70;;;;;;;0.23;100.00;151430.00;5054967;28;20827;-81
2022/04/03 07:06:13;;;;;;;12.10;9.80;;;;;;;0.18;100.00;151415.88;5071192;28;20449;-81
2022/04/03 07:08:50;;;;;;;13.40;9.40;;;;;;;0.24;100.00;151431.28;5054326;28;20532;-81
2022/04/03 07:11:26;;;;;;;11.57;7.90;;;;;;;0.49;100.00;151495.44;5017757;28;20468;-81
2022/04/03 07:14:01;;;;;;;11.23;8.80;;;;;;;0.61;100.00;151526.25;5000295;28;20795;-82
2022/04/03 07:16:37;;;;;;;13.70;8.60;;;;;;;0.55;100.00;151512.16;5014916;28;20471;-82
2022/04/03 07:19:12;;;;;;;11.03;8.00;;;;;;;0.68;100.00;151544.25;4999540;28;20439;-83
2022/04/03 07:21:50;;;;;;;9.13;8.17;;;;;;;0.58;100.00;151518.59;5014913;28;20439;-83
2022/04/03 07:24:27;;;;;;;12.30;9.60;;;;;;;0.70;100.00;151549.38;5015926;28;20454;-84
2022/04/03 07:27:03;;;;;;;11.27;7.50;;;;;;;0.82;100.00;151580.16;5027160;28;20961;-84
2022/04/03 07:29:38;;;;;;;10.20;7.43;;;;;;;1.00;100.00;151626.44;5014645;28;20787;-85
2022/04/03 07:32:14;;;;;;;9.20;7.03;;;;;;;1.09;100.00;151649.53;5014698;28;20817;-85
2022/04/03 07:34:52;;;;;;;11.43;8.40;;;;;;;1.09;100.00;151649.53;4998602;28;20451;-85
2022/04/03 07:37:28;;;;;;;11.93;7.27;;;;;;;0.78;100.00;151569.91;5018413;28;20442;-84
2022/04/03 07:40:07;;;;;;;11.07;9.90;;;;;;;0.83;100.00;151581.47;5035019;28;20450;-84
2022/04/03 07:42:43;;;;;;;8.30;7.03;;;;;;;0.91;100.00;151603.31;5024482;28;20483;-84
2022/04/03 07:45:18;;;;;;;9.93;7.37;;;;;;;0.94;100.00;151609.72;5014432;28;20586;-83
2022/04/03 07:47:55;;;;;;;10.03;6.80;;;;;;;0.93;100.00;151608.44;5034567;28;20533;-83
2022/04/03 07:50:30;;;;;;;10.47;7.63;;;;;;;1.03;100.00;151634.09;5034359;28;20446;-83
2022/04/03 07:53:09;;;;;;;10.07;7.20;;;;;;;1.00;100.00;151626.44;5033888;28;20518;-83
2022/04/03 07:55:46;;;;;;;9.03;7.97;;;;;;;1.01;100.00;151628.97;5024204;28;20463;-83
2022/04/03 07:58:21;;;;;;;9.27;7.00;;;;;;;0.92;100.00;151604.59;5019625;28;20454;-82
2022/04/03 08:00:57;;;;;;;9.93;8.20;;;;;;;0.79;100.00;151571.22;5030463;28;20439;-82
2022/04/03 08:03:33;;;;;;;8.13;7.00;;;;;;;0.79;100.00;151572.50;5018151;28;20462;-81
2022/04/03 08:06:09;;;;;;;7.13;6.37;;;;;;;0.71;100.00;151551.97;5014482;28;20953;-81
2022/04/03 08:08:45;;;;;;;12.37;7.63;;;;;;;0.74;100.00;151559.66;4998689;28;20440;-81
2022/04/03 08:11:22;;;;;;;9.70;7.60;;;;;;;0.86;100.00;151590.47;5032589;28;20569;-80
2022/04/03 08:13:58;;;;;;;9.07;7.70;;;;;;;0.84;100.00;151585.34;5000528;28;20746;-80
2022/04/03 08:16:34;;;;;;;9.40;6.93;;;;;;;0.78;100.00;151568.63;5015584;28;20541;-80
2022/04/03 08:19:09;;;;;;;9.40;7.40;;;;;;;0.89;100.00;151598.19;5018467;28;20570;-80
2022/04/03 08:21:45;;;;;;;10.90;7.40;;;;;;;0.86;100.00;151590.47;5046404;28;20454;-80
2022/04/03 08:24:21;;;;;;;8.83;7.93;;;;;;;0.77;100.00;151567.34;5027251;28;20467;-80
2022/04/03 08:26:57;;;;;;;11.47;8.90;;;;;;;0.72;100.00;151553.22;5029672;28;20451;-80
2022/04/03 08:29:33;;;;;;;10.03;7.40;;;;;;;0.71;100.00;151550.66;5022373;28;20521;-80
2022/04/03 08:32:09;;;;;;;7.73;6.43;;;;;;;0.62;100.00;151528.81;5029316;28;20490;-79
2022/04/03 08:34:44;;;;;;;9.00;7.00;;;;;;;0.75;100.00;151560.91;5037730;28;20482;-80
2022/04/03 08:37:20;;;;;;;9.10;7.17;;;;;;;0.68;100.00;151544.25;5038078;28;20450;-80
2022/04/03 08:39:55;;;;;;;8.30;7.00;;;;;;;0.66;100.00;151537.84;5055064;28;20937;-80
2022/04/03 08:42:33;;;;;;;10.60;7.97;;;;;;;0.71;100.00;151550.66;5022284;28;20474;-80
2022/04/03 08:45:11;;;;;;;10.70;7.30;;;;;;;0.75;100.00;151560.91;5055697;28;20561;-80
2022/04/03 08:47:48;;;;;;;9.20;7.13;;;;;;;0.89;100.00;151596.88;5036694;28;20439;-80
2022/04/03 08:50:25;;;;;;;8.33;6.70;;;;;;;0.93;100.00;151608.44;5047001;28;20446;-80
2022/04/03 08:53:03;;;;;;;10.57;7.03;;;;;;;0.83;100.00;151581.47;5040396;28;20447;-80
2022/04/03 08:55:38;;;;;;;9.13;7.27;;;;;;;1.07;100.00;151644.41;5002850;28;20798;-80
2022/04/03 08:58:15;;;;;;;9.27;6.87;;;;;;;1.40;100.00;151726.63;5033858;28;20443;-80
2022/04/03 09:00:51;;;;;;;8.30;5.97;;;;;;;1.65;99.61;151790.84;5020442;28;20458;-80
2022/04/03 09:03:27;;;;;;;9.10;6.93;;;;;;;1.71;99.90;151807.59;5027262;28;20938;-80
2022/04/03 09:06:13;;;;;;;7.60;5.97;;;;;;;1.88;97.13;151848.72;5019353;28;20447;-80
2022/04/03 09:08:49;;;;;;;8.20;6.60;;;;;;;1.99;98.61;151878.25;5014057;28;20463;-80
2022/04/03 09:11:28;;;;;;;7.63;5.50;;;;;;;2.38;94.33;151978.53;5019181;28;20507;-80
2022/04/03 09:14:14;;;;;;;7.80;7.00;;;;;;;2.33;93.38;151965.66;5020881;28;20979;-80
2022/04/03 09:16:50;;;;;;;7.50;5.93;;;;;;;2.19;96.11;151928.41;5021671;28;20454;-79
2022/04/03 09:19:31;;;;;;;8.60;6.37;;;;;;;1.67;93.34;151795.97;5022356;28;20443;-79
2022/04/03 09:22:07;;;;;;;8.47;6.57;;;;;;;1.66;96.64;151794.75;5051840;28;20446;-80
2022/04/03 09:24:47;;;;;;;7.20;5.53;;;;;;;1.43;94.09;151734.34;5058762;28;20471;-79
2022/04/03 09:27:24;;;;;;;8.47;5.90;;;;;;;1.42;96.83;151731.75;5031827;28;20846;-80
2022/04/03 09:30:07;;;;;;;8.03;5.90;;;;;;;1.40;94.64;151726.63;5014169;28;20538;-79
2022/04/03 09:32:47;;;;;;;9.53;6.50;;;;;;;1.45;94.85;151739.47;5044137;28;20430;-79
2022/04/03 09:35:26;;;;;;;11.10;8.60;;;;;;;1.27;93.51;151693.22;5027214;28;20766;-79
2022/04/03 09:38:09;;;;;;;9.90;5.90;;;;;;;1.30;93.61;151700.94;5035337;28;20458;-79
2022/04/03 09:40:47;;;;;;;7.20;5.73;;;;;;;1.22;96.76;151682.94;5026774;28;20448;-79
2022/04/03 09:43:25;;;;;;;7.40;5.80;;;;;;;1.24;94.87;151688.06;5015107;28;20981;-79
2022/04/03 09:46:04;;;;;;;7.43;5.30;;;;;;;1.16;95.49;151667.56;5045068;28;20566;-79
2022/04/03 09:48:40;;;;;;;8.30;5.60;;;;;;;1.08;96.18;151647.00;5034528;28;20486;-79
2022/04/03 09:51:19;;;;;;;7.77;5.67;;;;;;;1.04;93.92;151636.69;5023777;28;21089;-79
2022/04/03 09:53:58;;;;;;;6.57;5.87;;;;;;;1.04;92.12;151635.41;5014333;28;20443;-79
2022/04/03 09:56:34;;;;;;;6.00;5.10;;;;;;;0.99;93.20;151623.84;5020174;28;20782;-79
2022/04/03 09:59:10;;;;;;;8.70;4.63;;;;;;;1.02;93.64;151631.56;5031733;28;20446;-78
2022/04/03 10:01:46;;;;;;;5.40;4.90;;;;;;;0.83;94.93;151581.47;5027790;28;20440;-78
2022/04/03 10:04:24;;;;;;;6.37;5.43;;;;;;;0.92;94.46;151605.91;4999212;28;20463;-78
2022/04/03 10:06:59;;;;;;;6.30;5.70;;;;;;;0.90;97.70;151599.47;5017856;28;20442;-78
2022/04/03 10:09:35;;;;;;;9.93;6.47;;;;;;;0.88;99.80;151595.59;5045461;28;20451;-77
2022/04/03 10:12:11;;;;;;;9.00;6.73;;;;;;;0.91;99.54;151602.00;5027136;28;20770;-77
2022/04/03 10:14:49;;;;;;;5.77;5.17;;;;;;;0.96;100.00;151614.84;5035401;28;20960;-78
2022/04/03 10:17:26;;;;;;;6.10;5.30;;;;;;;0.93;98.37;151608.44;5019688;28;20439;-78
2022/04/03 10:20:01;;;;;;;8.70;6.07;;;;;;;0.92;95.43;151605.91;5020557;28;20438;-77
2022/04/03 10:22:40;;;;;;;6.27;5.00;;;;;;;0.96;98.21;151616.16;5035584;28;20849;-77
2022/04/03 10:25:20;;;;;;;6.80;5.40;;;;;;;0.94;97.81;151609.72;5015789;28;20478;-78
2022/04/03 10:27:56;;;;;;;8.53;5.90;;;;;;;0.92;98.30;151605.91;5025885;28;21003;-78
2022/04/03 10:30:36;;;;;;;6.43;5.00;;;;;;;1.02;96.57;151630.28;5029674;28;20446;-78
2022/04/03 10:33:20;;;;;;;7.33;5.17;;;;;;;1.01;96.61;151628.97;5020443;28;20773;-78
2022/04/03 10:36:04;;;;;;;5.53;4.57;;;;;;;0.94;95.66;151611.03;5000343;28;20471;-78
2022/04/03 10:38:47;;;;;;;6.70;5.20;;;;;;;1.03;95.88;151634.09;5000448;28;20432;-78
2022/04/03 10:41:28;;;;;;;8.33;5.87;;;;;;;1.05;96.74;151639.28;5000598;28;20954;-77
2022/04/03 10:44:18;;;;;;;7.07;5.43;;;;;;;1.09;91.65;151649.53;5013349;28;20465;-77
2022/04/03 10:47:20;;;;;;;6.03;4.63;;;;;;;1.15;89.95;151663.66;5053438;28;20457;-77
2022/04/03 10:50:01;;;;;;;5.70;4.27;;;;;;;1.14;90.21;151662.38;5035734;28;20438;-76
2022/04/03 10:52:57;;;;;;;6.63;4.77;;;;;;;1.12;91.60;151655.97;5034113;28;20448;-77
2022/04/03 10:55:37;;;;;;;7.63;5.57;;;;;;;1.11;93.38;151654.66;5032064;28;20444;-76
2022/04/03 10:58:17;;;;;;;5.40;4.27;;;;;;;1.00;95.31;151626.44;5031893;28;20431;-76
2022/04/03 11:00:53;;;;;;;5.50;4.50;;;;;;;0.83;92.86;151581.47;5015677;28;20471;-77
2022/04/03 11:03:37;;;;;;;4.43;3.90;;;;;;;0.80;97.67;151575.03;5016469;28;20471;-77
2022/04/03 11:06:36;;;;;;;5.70;3.90;;;;;;;0.78;96.71;151569.91;5000386;28;20475;-76
2022/04/03 11:09:15;;;;;;;5.07;3.90;;;;;;;0.72;94.31;151554.50;5005713;28;20484;-77
2022/04/03 11:11:54;;;;;;;3.60;2.77;;;;;;;0.78;94.30;151569.91;5006558;28;20525;-77
2022/04/03 11:14:50;;;;;;;5.27;4.43;;;;;;;0.87;94.97;151593.06;5014719;28;20447;-77
2022/04/03 11:17:49;;;;;;;5.03;4.37;;;;;;;0.89;93.00;151596.88;5019876;28;20427;-77
2022/04/03 11:20:32;;;;;;;6.93;4.07;;;;;;;1.12;97.82;151655.97;5050354;28;20455;-77
2022/04/03 11:23:14;;;;;;;6.63;4.70;;;;;;;1.27;97.69;151693.22;5041540;28;20450;-77
2022/04/03 11:25:50;;;;;;;4.90;4.00;;;;;;;1.44;96.34;151736.88;5023517;28;20958;-77
2022/04/03 11:28:26;;;;;;;5.47;4.23;;;;;;;1.60;96.56;151778.00;5018364;28;20455;-77
2022/04/03 11:31:03;;;;;;;6.50;4.43;;;;;;;1.67;93.83;151795.97;5000725;28;20439;-76
2022/04/03 11:33:39;;;;;;;5.90;4.23;;;;;;;1.50;92.26;151753.63;5019647;28;20441;-76
2022/04/03 11:36:17;;;;;;;5.77;4.33;;;;;;;1.48;93.14;151747.19;5019845;28;20439;-77
2022/04/03 11:38:55;;;;;;;5.30;4.13;;;;;;;1.53;89.48;151760.03;5035075;28;20537;-76
2022/04/03 11:41:34;;;;;;;6.10;4.20;;;;;;;1.52;89.10;151757.44;5018967;28;20458;-76
2022/04/03 11:44:10;;;;;;;5.63;3.90;;;;;;;1.58;89.65;151772.88;5000078;28;20455;-77
2022/04/03 11:46:49;;;;;;;6.73;4.80;;;;;;;1.63;85.36;151785.72;5022045;28;20463;-77
2022/04/03 11:49:28;;;;;;;5.20;3.63;;;;;;;1.62;83.29;151783.13;5033881;28;20461;-77
2022/04/03 11:52:06;;;;;;;4.43;3.60;;;;;;;1.84;83.91;151841.00;5023768;28;20843;-77
2022/04/03 11:54:55;;;;;;;5.07;4.30;;;;;;;1.90;83.74;151855.16;5030127;28;20810;-77
2022/04/03 11:57:30;;;;;;;3.93;3.53;;;;;;;1.93;85.56;151862.88;5018744;28;20522;-77
2022/04/03 12:00:09;;;;;;;6.00;4.20;;;;;;;2.11;85.32;151907.84;5029690;28;20458;-77